Time;durP1;ratioP1;P1;durP2;ratioP2;P2;SDS_P1;SDS_P2;PMS_P1;PMS_P2;Temp;Humidity;BMP_temperature;BMP_pressure;BME280_temperature;BME280_humidity;BME280_pressure;Samples;Min_cycle;Max_cycle;Signal;HPM_P1;HPM_P2
2022/02/22 00:00:20;;;;;;;14.53;6.47;;;;;;;3.71;63.21;97304.31;2281147;78;21032;-82
2022/02/22 00:03:23;;;;;;;16.77;6.63;;;;;;;3.75;63.24;97309.55;2260699;78;20918;-82
2022/02/22 00:06:23;;;;;;;20.30;7.37;;;;;;;3.78;63.26;97305.71;2280311;78;21318;-83
2022/02/22 00:09:24;;;;;;;15.53;6.50;;;;;;;3.81;63.27;97303.17;2280544;78;21313;-82
2022/02/22 00:12:24;;;;;;;16.83;6.63;;;;;;;3.82;63.25;97304.05;2281609;77;20918;-82
2022/02/22 00:15:26;;;;;;;16.43;6.53;;;;;;;3.84;63.29;97310.09;2281777;78;21364;-82
2022/02/22 00:18:27;;;;;;;18.33;7.17;;;;;;;3.85;63.31;97320.86;2280797;78;21065;-83
2022/02/22 00:21:28;;;;;;;20.27;7.20;;;;;;;3.84;63.21;97321.28;2248685;79;20935;-83
2022/02/22 00:24:28;;;;;;;16.67;6.97;;;;;;;3.84;63.40;97325.58;2249307;78;20936;-83
2022/02/22 00:27:29;;;;;;;17.90;6.40;;;;;;;3.82;63.29;97324.69;2249211;79;20936;-84
2022/02/22 00:30:29;;;;;;;16.27;6.53;;;;;;;3.78;63.44;97323.78;2248270;78;20987;-83
2022/02/22 00:33:30;;;;;;;17.17;6.00;;;;;;;3.71;63.50;97330.98;2248875;78;21410;-83
2022/02/22 00:36:30;;;;;;;11.63;5.57;;;;;;;3.68;63.78;97341.69;2249157;79;20975;-83
2022/02/22 00:39:31;;;;;;;15.07;6.13;;;;;;;3.66;63.71;97335.64;2248943;79;20932;-82
2022/02/22 00:42:32;;;;;;;16.63;5.70;;;;;;;3.67;63.85;97336.95;2248853;78;20935;-83
2022/02/22 00:45:32;;;;;;;13.67;5.57;;;;;;;3.69;63.80;97335.27;2248999;79;20992;-84
2022/02/22 00:48:33;;;;;;;15.20;5.93;;;;;;;3.76;64.02;97342.25;2249157;79;21351;-82
2022/02/22 00:51:33;;;;;;;11.77;5.60;;;;;;;3.81;64.07;97341.02;2249183;79;21366;-82
2022/02/22 00:54:34;;;;;;;11.93;5.77;;;;;;;3.86;64.08;97343.67;2249337;79;21363;-80
2022/02/22 00:57:36;;;;;;;14.40;5.97;;;;;;;3.88;64.07;97347.14;2248726;78;21414;-82
2022/02/22 01:00:37;;;;;;;12.00;5.37;;;;;;;3.89;64.33;97349.74;2249072;79;21588;-83
2022/02/22 01:03:37;;;;;;;14.33;5.90;;;;;;;3.89;64.20;97347.16;2248820;79;20991;-82
2022/02/22 01:06:38;;;;;;;12.60;6.03;;;;;;;3.91;64.21;97353.64;2248929;78;20916;-83
2022/02/22 01:09:38;;;;;;;22.00;5.97;;;;;;;3.89;64.25;97352.32;2249056;79;21328;-82
2022/02/22 01:12:39;;;;;;;13.90;5.60;;;;;;;3.90;64.13;97355.34;2249388;79;21355;-83
2022/02/22 01:15:39;;;;;;;12.67;5.23;;;;;;;3.91;64.29;97346.76;2249283;79;20939;-84
2022/02/22 01:18:40;;;;;;;17.07;4.60;;;;;;;3.95;64.31;97354.13;2249305;78;20928;-82
2022/02/22 01:21:40;;;;;;;20.37;4.43;;;;;;;3.96;64.34;97354.56;2291087;78;21020;-81
2022/02/22 01:24:41;;;;;;;26.43;5.40;;;;;;;3.98;64.26;97361.91;2291444;78;21307;-81
2022/02/22 01:27:41;;;;;;;17.13;4.37;;;;;;;4.02;64.42;97370.14;2291076;78;21686;-82
2022/02/22 01:30:42;;;;;;;13.53;4.53;;;;;;;4.05;64.28;97375.35;2291262;78;21361;-82
2022/02/22 01:33:42;;;;;;;14.33;3.97;;;;;;;4.08;64.09;97374.97;2291351;78;21363;-81
2022/02/22 01:36:45;;;;;;;9.93;3.97;;;;;;;4.13;64.20;97376.32;2291531;78;20928;-82
2022/02/22 01:39:45;;;;;;;16.03;4.10;;;;;;;4.14;64.51;97376.77;2291063;78;21392;-81
2022/02/22 01:42:46;;;;;;;8.30;3.27;;;;;;;4.15;64.58;97381.08;2291653;78;20987;-83
2022/02/22 01:45:46;;;;;;;7.83;3.07;;;;;;;4.16;64.72;97389.28;2290912;78;20959;-81
2022/02/22 01:48:47;;;;;;;14.00;3.33;;;;;;;4.19;65.04;97395.77;2291128;78;20955;-82
2022/02/22 01:51:47;;;;;;;17.97;3.77;;;;;;;4.21;65.04;97403.55;2290976;78;20960;-80
2022/02/22 01:54:48;;;;;;;7.77;2.57;;;;;;;4.24;65.25;97404.88;2290912;78;20948;-81
2022/02/22 01:57:48;;;;;;;9.23;3.10;;;;;;;4.28;65.32;97404.06;2290876;78;20951;-81
2022/02/22 02:00:49;;;;;;;9.33;3.37;;;;;;;4.28;65.47;97414.41;2291382;78;20998;-81
2022/02/22 02:03:53;;;;;;;11.33;2.93;;;;;;;4.28;65.62;97425.60;2290840;78;21357;-82
2022/02/22 02:06:51;;;;;;;9.87;3.00;;;;;;;4.29;65.88;97422.59;2290710;77;21276;-80
2022/02/22 02:09:52;;;;;;;7.17;3.00;;;;;;;4.26;66.03;97427.30;2291106;78;20968;-81
2022/02/22 02:12:55;;;;;;;10.27;3.37;;;;;;;4.26;66.27;97438.92;2291307;78;21425;-81
2022/02/22 02:15:56;;;;;;;9.83;3.27;;;;;;;4.28;66.48;97441.52;2290641;78;21384;-81
2022/02/22 02:18:56;;;;;;;4.10;2.40;;;;;;;4.29;66.66;97438.96;2291000;77;20988;-81
2022/02/22 02:21:57;;;;;;;7.00;3.00;;;;;;;4.32;66.77;97449.34;2283447;77;21002;-81
2022/02/22 02:24:57;;;;;;;8.13;2.90;;;;;;;4.36;66.73;97459.32;2290681;78;20979;-81
2022/02/22 02:27:58;;;;;;;9.80;3.33;;;;;;;4.38;66.94;97467.54;2290272;77;21344;-82
2022/02/22 02:30:58;;;;;;;10.83;3.87;;;;;;;4.37;67.16;97454.17;2290499;78;20956;-81
2022/02/22 02:33:58;;;;;;;9.80;3.40;;;;;;;4.39;67.52;97465.83;2290929;78;20960;-82
2022/02/22 02:36:59;;;;;;;8.83;3.20;;;;;;;4.36;67.87;97469.66;2290566;78;20963;-82
2022/02/22 02:39:59;;;;;;;5.57;3.03;;;;;;;4.32;68.20;97488.52;2291106;78;20955;-81
2022/02/22 02:43:00;;;;;;;8.40;3.07;;;;;;;4.27;68.75;97484.99;2291258;78;20971;-83
2022/02/22 02:46:00;;;;;;;7.03;2.70;;;;;;;4.24;68.86;97489.69;2291221;78;20959;-82
2022/02/22 02:49:01;;;;;;;8.17;3.30;;;;;;;4.22;69.17;97493.09;2290922;78;21023;-81
2022/02/22 02:52:01;;;;;;;12.33;3.30;;;;;;;4.22;69.18;97494.38;2290553;78;20924;-83
2022/02/22 02:55:02;;;;;;;9.20;3.47;;;;;;;4.20;69.71;97497.37;2291156;78;21373;-83
2022/02/22 02:58:02;;;;;;;5.87;3.30;;;;;;;4.16;69.75;97504.20;2290850;78;21050;-81
2022/02/22 03:01:03;;;;;;;17.23;3.53;;;;;;;4.15;69.83;97503.75;2291261;78;21054;-81
2022/02/22 03:04:04;;;;;;;12.83;3.43;;;;;;;4.14;70.20;97502.88;2291189;78;20951;-82
2022/02/22 03:07:06;;;;;;;10.70;3.03;;;;;;;4.14;70.33;97499.44;2267381;78;20978;-84
2022/02/22 03:10:07;;;;;;;14.77;3.30;;;;;;;4.13;70.56;97500.28;2291268;78;20932;-81
2022/02/22 03:13:09;;;;;;;6.47;3.40;;;;;;;4.14;70.70;97509.34;2291337;78;21348;-80
2022/02/22 03:16:09;;;;;;;5.43;3.07;;;;;;;4.11;70.66;97522.20;2291860;78;21371;-81
2022/02/22 03:19:11;;;;;;;5.83;2.93;;;;;;;4.05;70.97;97525.11;2291463;78;20995;-83
2022/02/22 03:22:12;;;;;;;3.90;2.70;;;;;;;4.01;70.94;97531.94;2286075;78;21013;-82
2022/02/22 03:25:12;;;;;;;4.67;2.37;;;;;;;3.99;70.94;97525.02;2281289;78;20950;-81
2022/02/22 03:28:13;;;;;;;3.90;2.27;;;;;;;3.98;71.96;97534.89;2281897;78;20938;-81
2022/02/22 03:31:13;;;;;;;3.40;2.30;;;;;;;3.90;73.02;97546.37;2281936;78;21013;-82
2022/02/22 03:34:14;;;;;;;2.50;1.67;;;;;;;3.82;73.67;97551.41;2281195;78;20894;-82
2022/02/22 03:37:14;;;;;;;3.27;1.80;;;;;;;3.71;74.51;97558.09;2281451;78;20997;-80
2022/02/22 03:40:15;;;;;;;2.63;2.20;;;;;;;3.61;74.68;97561.34;2281860;78;21097;-81
2022/02/22 03:43:15;;;;;;;3.37;2.60;;;;;;;3.51;75.77;97574.50;2281203;78;20970;-82
2022/02/22 03:46:16;;;;;;;3.27;2.03;;;;;;;3.42;75.09;97582.03;2281043;78;20985;-81
2022/02/22 03:49:17;;;;;;;3.90;2.23;;;;;;;3.35;75.95;97585.75;2281220;78;20989;-82
2022/02/22 03:52:17;;;;;;;3.00;2.20;;;;;;;3.27;75.44;97594.62;2281139;78;20934;-81
2022/02/22 03:55:17;;;;;;;4.13;2.20;;;;;;;3.14;74.91;97604.23;2281115;78;20962;-82
2022/02/22 03:58:18;;;;;;;3.83;2.47;;;;;;;3.05;75.16;97626.82;2281500;77;20946;-82
2022/02/22 04:01:18;;;;;;;2.97;2.07;;;;;;;3.01;76.62;97630.17;2280514;78;21052;-81
2022/02/22 04:04:19;;;;;;;3.10;2.27;;;;;;;3.00;77.76;97641.73;2280959;78;20957;-82
2022/02/22 04:07:19;;;;;;;4.13;2.07;;;;;;;2.92;77.76;97654.45;2280404;77;20950;-81
2022/02/22 04:10:20;;;;;;;3.57;1.83;;;;;;;2.79;77.58;97657.59;2280911;78;20961;-81
2022/02/22 04:13:20;;;;;;;5.13;2.40;;;;;;;2.66;77.73;97668.44;2280317;77;20933;-81
2022/02/22 04:16:21;;;;;;;5.17;2.13;;;;;;;2.53;77.52;97673.27;2280224;78;21337;-82
2022/02/22 04:19:21;;;;;;;2.97;2.07;;;;;;;2.41;77.79;97674.25;2279604;78;20967;-83
2022/02/22 04:22:22;;;;;;;8.43;2.30;;;;;;;2.31;77.82;97670.12;2285310;78;20972;-81
2022/02/22 04:25:22;;;;;;;3.27;1.77;;;;;;;2.22;77.90;97675.91;2290048;77;20956;-83
2022/02/22 04:28:23;;;;;;;4.93;2.33;;;;;;;2.14;78.23;97681.27;2289918;77;20991;-81
2022/02/22 04:31:23;;;;;;;5.23;2.20;;;;;;;2.06;77.81;97688.80;2289581;78;20952;-82
2022/02/22 04:34:24;;;;;;;4.47;2.70;;;;;;;2.01;78.56;97692.08;2289815;78;21292;-82
2022/02/22 04:37:24;;;;;;;3.73;2.27;;;;;;;1.97;78.29;97703.12;2290509;78;21010;-83
2022/02/22 04:40:25;;;;;;;5.43;3.00;;;;;;;1.98;78.33;97712.59;2290215;78;20928;-82
2022/02/22 04:43:25;;;;;;;6.10;3.27;;;;;;;2.01;78.35;97710.09;2291353;78;20962;-83
2022/02/22 04:46:26;;;;;;;7.17;3.40;;;;;;;2.06;78.60;97711.96;2290883;78;20908;-82
2022/02/22 04:49:26;;;;;;;8.33;3.60;;;;;;;2.09;78.69;97717.61;2290865;78;21416;-83
2022/02/22 04:52:27;;;;;;;8.70;3.63;;;;;;;2.10;78.37;97715.48;2290158;78;20919;-82
2022/02/22 04:55:27;;;;;;;9.90;3.80;;;;;;;2.08;78.22;97724.45;2290225;78;20970;-83
2022/02/22 04:58:28;;;;;;;4.30;3.03;;;;;;;2.10;77.83;97727.08;2290786;77;21003;-82
2022/02/22 05:01:28;;;;;;;6.63;2.80;;;;;;;2.12;78.05;97720.27;2290852;78;20998;-82
2022/02/22 05:04:29;;;;;;;5.47;2.90;;;;;;;2.15;78.09;97738.37;2291360;78;20928;-83
2022/02/22 05:07:32;;;;;;;7.43;3.40;;;;;;;2.21;78.31;97739.81;2290558;78;20936;-81
2022/02/22 05:10:33;;;;;;;5.77;3.20;;;;;;;2.25;78.52;97742.93;2290870;78;20920;-80
2022/02/22 05:13:35;;;;;;;11.60;4.93;;;;;;;2.28;78.47;97744.30;2290445;78;21422;-82
2022/02/22 05:16:36;;;;;;;8.73;4.00;;;;;;;2.32;78.05;97752.56;2290979;78;21125;-82
2022/02/22 05:19:37;;;;;;;4.93;2.70;;;;;;;2.35;78.08;97751.35;2291341;78;21042;-82
2022/02/22 05:22:37;;;;;;;5.13;2.83;;;;;;;2.37;78.12;97759.99;2286008;78;20982;-81
2022/02/22 05:25:38;;;;;;;6.27;2.87;;;;;;;2.40;77.96;97767.80;2280325;78;20946;-83
2022/02/22 05:28:44;;;;;;;4.43;2.83;;;;;;;2.41;78.06;97768.26;2279978;78;20942;-81
2022/02/22 05:31:41;;;;;;;5.80;3.10;;;;;;;2.44;78.12;97772.61;2279004;78;21389;-82
2022/02/22 05:34:41;;;;;;;9.80;2.43;;;;;;;2.45;78.50;97773.94;2279502;78;20964;-82
2022/02/22 05:37:42;;;;;;;10.63;2.90;;;;;;;2.47;78.08;97770.99;2279061;78;20949;-81
2022/02/22 05:40:42;;;;;;;6.53;3.00;;;;;;;2.49;78.03;97778.76;2279534;78;20965;-81
2022/02/22 05:43:43;;;;;;;6.63;2.93;;;;;;;2.53;78.02;97796.04;2280210;78;21337;-82
2022/02/22 05:46:43;;;;;;;5.03;3.00;;;;;;;2.53;77.89;97790.47;2279942;78;21627;-83
2022/02/22 05:49:44;;;;;;;6.53;3.77;;;;;;;3.22;81.45;97796.09;2279772;78;21310;-81
2022/02/22 05:52:44;;;;;;;8.93;3.57;;;;;;;3.36;76.93;97808.89;2280549;78;20938;-83
2022/02/22 05:55:48;;;;;;;8.40;4.77;;;;;;;3.11;76.30;97826.78;2280061;78;20957;-82
2022/02/22 05:58:48;;;;;;;8.23;4.43;;;;;;;2.93;76.56;97823.74;2280400;78;20998;-82
2022/02/22 06:01:49;;;;;;;9.10;3.83;;;;;;;2.84;77.19;97836.39;2280324;78;21009;-83
2022/02/22 06:04:49;;;;;;;7.17;3.37;;;;;;;2.78;77.67;97845.26;2279993;78;20942;-85
2022/02/22 06:07:50;;;;;;;7.00;3.67;;;;;;;2.72;78.37;97867.00;2280232;78;20938;-83
2022/02/22 06:10:50;;;;;;;6.73;3.10;;;;;;;2.68;78.32;97867.33;2279015;78;21349;-81
2022/02/22 06:13:51;;;;;;;10.83;3.97;;;;;;;2.68;78.23;97864.75;2278893;78;21703;-80
2022/02/22 06:16:53;;;;;;;7.47;4.40;;;;;;;2.71;78.15;97865.25;2278649;78;21408;-81
2022/02/22 06:19:56;;;;;;;10.50;4.40;;;;;;;2.75;78.32;97878.26;2279264;77;20998;-82
2022/02/22 06:22:56;;;;;;;8.30;3.90;;;;;;;2.78;78.57;97886.49;2284091;77;21035;-82
2022/02/22 06:25:56;;;;;;;8.57;4.67;;;;;;;2.79;79.02;97899.83;2288931;78;20927;-83
2022/02/22 06:28:57;;;;;;;12.47;6.37;;;;;;;2.78;78.95;97891.23;2288076;77;21051;-79
2022/02/22 06:31:57;;;;;;;15.50;7.20;;;;;;;2.82;79.23;97899.92;2287922;78;21469;-81
2022/02/22 06:34:58;;;;;;;14.47;6.50;;;;;;;2.81;79.08;97899.45;2289139;78;20896;-82
2022/02/22 06:37:58;;;;;;;11.57;4.17;;;;;;;2.85;79.18;97905.16;2289813;78;20990;-81
2022/02/22 06:40:59;;;;;;;8.13;3.70;;;;;;;2.89;79.61;97916.00;2290173;78;20936;-81
2022/02/22 06:43:59;;;;;;;13.17;4.80;;;;;;;2.91;79.31;97920.78;2290388;78;20939;-81
2022/02/22 06:47:00;;;;;;;9.57;4.93;;;;;;;2.95;78.98;97925.19;2289631;78;20920;-78
2022/02/22 06:50:00;;;;;;;12.20;4.73;;;;;;;2.99;79.45;97932.17;2289821;78;20948;-82
2022/02/22 06:53:01;;;;;;;12.33;4.63;;;;;;;2.98;79.85;97926.56;2289539;77;21080;-81
2022/02/22 06:56:02;;;;;;;8.73;4.50;;;;;;;3.03;79.94;97936.58;2289692;78;20987;-82
2022/02/22 06:59:03;;;;;;;14.57;4.57;;;;;;;3.08;79.81;97944.02;2289999;78;21001;-80
2022/02/22 07:02:03;;;;;;;10.30;4.33;;;;;;;3.13;79.68;97946.30;2289577;78;20983;-80
2022/02/22 07:05:04;;;;;;;12.87;5.77;;;;;;;3.18;79.59;97951.17;2289078;78;20948;-81
2022/02/22 07:08:05;;;;;;;19.43;9.80;;;;;;;3.22;80.13;97957.28;2289419;78;20986;-81
2022/02/22 07:11:06;;;;;;;11.23;5.70;;;;;;;3.22;80.24;97961.56;2289087;78;20900;-81
2022/02/22 07:14:06;;;;;;;16.70;5.50;;;;;;;3.24;79.90;97966.34;2289280;78;20924;-82
2022/02/22 07:17:08;;;;;;;11.00;5.37;;;;;;;3.35;80.09;97973.95;2289457;78;20932;-81
2022/02/22 07:20:08;;;;;;;11.23;5.50;;;;;;;3.39;79.96;97968.03;2290174;78;20972;-81
2022/02/22 07:23:12;;;;;;;9.20;4.47;;;;;;;3.40;80.56;97971.07;2267515;77;21018;-80
2022/02/22 07:26:12;;;;;;;10.00;4.27;;;;;;;3.43;80.12;97978.89;2247995;78;20931;-81
2022/02/22 07:29:13;;;;;;;10.70;5.17;;;;;;;3.51;80.29;97982.58;2247521;79;21007;-80
2022/02/22 07:32:15;;;;;;;14.90;5.03;;;;;;;3.55;80.03;97988.69;2247165;78;21027;-81
2022/02/22 07:35:16;;;;;;;12.90;4.30;;;;;;;3.59;79.79;97994.38;2247778;79;20928;-83
2022/02/22 07:38:16;;;;;;;10.37;4.90;;;;;;;3.66;79.55;97994.99;2247346;79;20960;-84
2022/02/22 07:41:22;;;;;;;8.73;4.00;;;;;;;3.68;79.35;98003.23;2247717;79;20908;-82
2022/02/22 07:44:19;;;;;;;9.83;4.50;;;;;;;3.79;79.21;98010.83;2246449;78;20976;-82
2022/02/22 07:47:20;;;;;;;9.87;4.73;;;;;;;3.89;79.05;98008.47;2246989;79;20944;-81
2022/02/22 07:50:20;;;;;;;10.30;4.50;;;;;;;3.94;79.07;98016.78;2246921;78;20896;-82
2022/02/22 07:53:21;;;;;;;12.97;4.73;;;;;;;3.98;78.83;98019.02;2247178;79;20951;-83
2022/02/22 07:56:21;;;;;;;15.20;6.80;;;;;;;4.01;78.81;98017.80;2247228;78;20928;-84
2022/02/22 07:59:22;;;;;;;14.73;5.13;;;;;;;4.10;78.61;98028.36;2246786;79;20924;-82
2022/02/22 08:02:23;;;;;;;15.07;5.70;;;;;;;4.18;78.56;98024.66;2247845;79;21066;-80
2022/02/22 08:05:23;;;;;;;18.23;4.80;;;;;;;4.21;78.18;98029.91;2248571;78;20971;-84
2022/02/22 08:08:24;;;;;;;14.60;4.73;;;;;;;4.31;78.00;98034.03;2247849;79;20904;-82
2022/02/22 08:11:26;;;;;;;18.67;6.07;;;;;;;4.34;78.12;98038.43;2248538;79;20963;-82
2022/02/22 08:14:28;;;;;;;15.73;5.63;;;;;;;4.36;77.99;98042.80;2247508;79;20960;-82
2022/02/22 08:17:29;;;;;;;18.90;5.60;;;;;;;4.35;77.66;98037.17;2247670;79;20924;-82
2022/02/22 08:20:29;;;;;;;14.30;5.57;;;;;;;4.32;77.83;98055.58;2246987;78;20936;-83
2022/02/22 08:23:31;;;;;;;14.67;5.23;;;;;;;4.39;78.01;98053.20;2269233;77;20982;-83
2022/02/22 08:26:31;;;;;;;17.90;5.40;;;;;;;4.45;78.21;98059.80;2288985;78;20897;-82
2022/02/22 08:29:32;;;;;;;13.40;5.27;;;;;;;4.48;77.78;98067.63;2288957;78;20924;-83
2022/02/22 08:32:32;;;;;;;14.97;6.17;;;;;;;4.46;78.33;98069.72;2289171;78;21339;-83
2022/02/22 08:35:33;;;;;;;14.97;5.80;;;;;;;4.44;78.40;98080.44;2288492;78;21312;-80
2022/02/22 08:38:33;;;;;;;15.90;6.53;;;;;;;4.40;78.76;98083.38;2288642;77;20952;-82
2022/02/22 08:41:34;;;;;;;17.23;6.50;;;;;;;4.36;78.47;98091.02;2288743;78;20974;-81
2022/02/22 08:44:34;;;;;;;15.27;7.93;;;;;;;4.43;78.68;98091.20;2288891;78;20956;-81
2022/02/22 08:47:35;;;;;;;19.03;7.20;;;;;;;4.48;78.57;98089.59;2289270;78;20967;-82
2022/02/22 08:50:35;;;;;;;18.57;6.27;;;;;;;4.60;78.44;98090.72;2289596;78;20982;-82
2022/02/22 08:53:36;;;;;;;13.93;5.43;;;;;;;4.73;78.23;98092.33;2289435;78;20976;-82
2022/02/22 08:56:36;;;;;;;9.27;4.03;;;;;;;4.85;78.06;98097.31;2289893;78;21324;-80
2022/02/22 08:59:37;;;;;;;10.50;4.27;;;;;;;4.79;77.71;98099.34;2288954;78;20956;-81
2022/02/22 09:02:37;;;;;;;12.83;4.90;;;;;;;4.75;77.87;98100.12;2288573;78;20972;-80
2022/02/22 09:05:41;;;;;;;15.33;6.60;;;;;;;4.73;78.20;98110.84;2288389;78;20946;-82
2022/02/22 09:08:43;;;;;;;11.77;5.67;;;;;;;4.72;78.39;98114.27;2265528;78;20920;-80
2022/02/22 09:11:44;;;;;;;13.77;5.83;;;;;;;4.78;78.33;98113.98;2289504;78;20987;-83
2022/02/22 09:14:45;;;;;;;21.80;7.53;;;;;;;4.69;78.00;98116.78;2288452;78;20959;-80
2022/02/22 09:17:45;;;;;;;17.43;7.80;;;;;;;4.67;78.41;98115.88;2288508;78;20963;-81
2022/02/22 09:20:46;;;;;;;18.60;8.47;;;;;;;4.81;78.48;98118.36;2289221;78;21466;-82
2022/02/22 09:23:46;;;;;;;16.97;7.80;;;;;;;4.86;78.56;98123.63;2283571;77;21670;-83
2022/02/22 09:26:46;;;;;;;11.17;6.93;;;;;;;4.80;78.29;98125.23;2278700;78;21416;-82
2022/02/22 09:29:47;;;;;;;13.30;7.27;;;;;;;4.83;78.36;98129.61;2278749;78;20929;-83
2022/02/22 09:32:47;;;;;;;13.10;5.50;;;;;;;4.90;78.49;98133.20;2278497;78;20977;-82
2022/02/22 09:35:48;;;;;;;8.13;4.97;;;;;;;4.94;78.45;98125.55;2278525;78;20954;-83
2022/02/22 09:38:49;;;;;;;10.43;5.53;;;;;;;4.91;78.27;98121.60;2278728;78;21021;-82
2022/02/22 09:41:50;;;;;;;12.93;5.33;;;;;;;4.91;78.17;98134.53;2278754;78;21456;-81
2022/02/22 09:44:50;;;;;;;16.27;5.23;;;;;;;4.95;78.13;98127.72;2278824;78;20941;-82
2022/02/22 09:47:53;;;;;;;11.03;5.60;;;;;;;5.02;77.63;98126.59;2278848;78;20930;-82
2022/02/22 09:50:53;;;;;;;9.67;5.37;;;;;;;5.17;77.58;98138.11;2278454;78;21001;-81
2022/02/22 09:53:54;;;;;;;7.33;4.13;;;;;;;5.30;76.76;98130.68;2279064;77;20917;-81
2022/02/22 09:56:54;;;;;;;14.00;5.30;;;;;;;5.39;75.92;98139.93;2278311;78;20941;-83
2022/02/22 09:59:54;;;;;;;12.03;5.27;;;;;;;5.47;76.16;98145.27;2278837;78;20930;-83
2022/02/22 10:02:55;;;;;;;11.03;5.03;;;;;;;5.50;76.07;98141.45;2278847;78;20981;-83
2022/02/22 10:05:55;;;;;;;8.70;4.60;;;;;;;5.55;75.57;98159.66;2278272;78;20945;-82
2022/02/22 10:08:56;;;;;;;9.30;4.37;;;;;;;5.60;75.25;98155.03;2278819;78;20993;-83
2022/02/22 10:11:57;;;;;;;11.50;4.90;;;;;;;5.64;73.99;98160.72;2278399;78;20902;-83
2022/02/22 10:14:57;;;;;;;9.97;4.73;;;;;;;5.74;73.87;98171.72;2279050;78;20961;-83
2022/02/22 10:18:00;;;;;;;8.80;4.00;;;;;;;5.93;73.49;98170.81;2278834;78;20954;-82
2022/02/22 10:21:00;;;;;;;9.27;5.17;;;;;;;6.04;72.71;98171.47;2278296;77;20985;-83
2022/02/22 10:24:01;;;;;;;7.23;3.87;;;;;;;6.27;71.87;98171.92;2262015;77;20929;-82
2022/02/22 10:27:01;;;;;;;8.43;4.30;;;;;;;6.44;70.54;98171.34;2246479;78;20935;-82
2022/02/22 10:30:02;;;;;;;6.87;3.80;;;;;;;6.79;70.31;98183.60;2245838;79;20971;-81
2022/02/22 10:33:03;;;;;;;5.17;2.63;;;;;;;6.94;68.65;98174.80;2245965;78;20987;-82
2022/02/22 10:36:06;;;;;;;6.27;3.20;;;;;;;6.89;69.01;98177.28;2246412;79;20995;-83
2022/02/22 10:39:06;;;;;;;5.97;3.07;;;;;;;6.87;68.20;98185.47;2246925;78;20920;-83
2022/02/22 10:42:10;;;;;;;9.27;3.83;;;;;;;6.73;68.34;98176.59;2246741;79;21698;-83
2022/02/22 10:45:10;;;;;;;9.77;5.73;;;;;;;6.63;68.64;98183.78;2246995;79;21015;-82
2022/02/22 10:48:11;;;;;;;9.60;4.90;;;;;;;6.75;68.66;98185.27;2247469;79;20932;-84
2022/02/22 10:51:11;;;;;;;5.63;2.87;;;;;;;7.01;68.51;98189.61;2247304;78;20987;-82
2022/02/22 10:54:12;;;;;;;9.93;4.83;;;;;;;7.29;66.52;98180.50;2247063;78;20952;-83
2022/02/22 10:57:12;;;;;;;7.97;4.47;;;;;;;7.57;67.12;98194.73;2247454;78;20904;-82
2022/02/22 11:00:13;;;;;;;12.00;6.40;;;;;;;7.52;66.35;98190.78;2247360;79;20936;-81
2022/02/22 11:03:13;;;;;;;8.47;4.57;;;;;;;7.52;66.48;98201.59;2247167;79;20971;-84
2022/02/22 11:06:14;;;;;;;6.77;3.67;;;;;;;7.45;66.21;98204.95;2246546;79;20892;-83
2022/02/22 11:09:14;;;;;;;7.70;3.73;;;;;;;7.50;65.44;98209.36;2247038;78;20932;-81
2022/02/22 11:12:15;;;;;;;4.03;2.67;;;;;;;7.41;66.89;98203.17;2246725;79;21493;-83
2022/02/22 11:15:16;;;;;;;6.17;3.33;;;;;;;7.31;65.43;98222.94;2246826;79;20944;-80
2022/02/22 11:18:16;;;;;;;8.93;4.23;;;;;;;7.26;65.87;98215.51;2245662;79;20975;-84
2022/02/22 11:24:21;;;;;;;9.87;4.30;;;;;;;8.69;68.29;98203.02;2245623;78;20952;-82
2022/02/22 11:27:21;;;;;;;33.57;5.87;;;;;;;8.29;62.67;98225.09;2288871;78;21625;-85
2022/02/22 11:30:22;;;;;;;28.97;8.20;;;;;;;8.68;67.19;98218.19;2288745;78;20972;-84
2022/02/22 11:33:22;;;;;;;10.37;5.30;;;;;;;9.35;63.37;98216.55;2288160;78;21002;-80
2022/02/22 11:36:23;;;;;;;9.80;5.53;;;;;;;9.26;61.12;98223.44;2288395;78;20983;-83
2022/02/22 11:39:24;;;;;;;7.70;4.50;;;;;;;8.71;59.97;98220.81;2288520;78;20932;-81
2022/02/22 11:42:24;;;;;;;8.03;4.20;;;;;;;8.26;60.94;98230.27;2288561;78;20964;-83
2022/02/22 11:45:25;;;;;;;5.93;3.50;;;;;;;8.11;61.62;98228.36;2288490;78;20958;-82
2022/02/22 11:48:25;;;;;;;10.97;4.97;;;;;;;7.86;60.67;98233.69;2288524;78;20940;-82
2022/02/22 11:51:26;;;;;;;10.73;5.00;;;;;;;7.73;62.03;98236.95;2288095;78;20971;-81
2022/02/22 11:54:26;;;;;;;8.40;3.30;;;;;;;7.74;61.87;98226.13;2288285;78;20900;-82
2022/02/22 11:57:27;;;;;;;8.03;3.70;;;;;;;7.79;61.60;98219.27;2288523;78;21865;-83
2022/02/22 12:00:27;;;;;;;7.27;3.63;;;;;;;7.77;60.79;98223.57;2287878;78;20951;-81
2022/02/22 12:03:28;;;;;;;4.67;3.10;;;;;;;7.86;61.58;98225.89;2288302;78;20979;-82
2022/02/22 12:06:29;;;;;;;6.97;3.30;;;;;;;8.24;60.89;98223.75;2289132;78;21287;-82
2022/02/22 12:09:30;;;;;;;6.50;3.00;;;;;;;8.38;59.35;98221.33;2288640;78;20987;-82
2022/02/22 12:12:30;;;;;;;6.50;3.47;;;;;;;8.35;60.47;98210.89;2288965;78;21604;-81
2022/02/22 12:15:31;;;;;;;8.60;3.97;;;;;;;8.25;58.56;98217.69;2288892;78;21757;-81
2022/02/22 12:18:31;;;;;;;8.40;3.87;;;;;;;8.02;60.40;98229.98;2288199;78;20960;-83
2022/02/22 12:21:34;;;;;;;11.00;4.43;;;;;;;7.63;61.24;98250.66;2288057;78;20960;-83
2022/02/22 12:24:34;;;;;;;9.97;5.87;;;;;;;7.08;66.35;98288.77;2267105;77;21047;-83
2022/02/22 12:27:39;;;;;;;10.37;5.60;;;;;;;6.47;68.37;98278.99;2246101;78;20932;-81
2022/02/22 12:30:37;;;;;;;6.47;3.33;;;;;;;6.42;69.53;98284.09;2245895;79;20967;-84
2022/02/22 12:33:37;;;;;;;4.10;2.37;;;;;;;6.09;73.00;98307.62;2246221;79;21370;-81
2022/02/22 12:36:38;;;;;;;5.63;4.00;;;;;;;5.55;74.23;98317.58;2246668;78;20928;-82
2022/02/22 12:39:39;;;;;;;7.20;3.23;;;;;;;5.12;75.31;98310.93;2246213;79;20940;-82
2022/02/22 12:42:40;;;;;;;6.67;4.10;;;;;;;5.09;75.46;98300.92;2246633;79;20977;-84
2022/02/22 12:45:43;;;;;;;4.27;3.13;;;;;;;5.27;76.22;98294.06;2247247;79;21016;-84
2022/02/22 12:48:43;;;;;;;6.33;3.70;;;;;;;5.49;76.24;98296.31;2247755;79;21066;-85
2022/02/22 12:51:48;;;;;;;8.33;4.57;;;;;;;5.79;77.39;98295.25;2247443;79;20932;-84
2022/02/22 12:54:49;;;;;;;14.77;7.33;;;;;;;5.74;76.79;98293.42;2247202;79;21019;-83
2022/02/22 12:57:49;;;;;;;17.43;9.13;;;;;;;5.66;76.77;98300.58;2246711;78;20931;-86
2022/02/22 13:00:50;;;;;;;13.30;7.27;;;;;;;5.58;77.33;98300.82;2246630;78;20968;-84
2022/02/22 13:03:50;;;;;;;12.73;7.47;;;;;;;5.49;77.63;98300.61;2246164;79;20956;-83
2022/02/22 13:06:51;;;;;;;11.47;6.37;;;;;;;5.54;78.17;98302.47;2247067;78;20936;-80
2022/02/22 13:09:51;;;;;;;5.67;3.20;;;;;;;5.76;78.27;98318.94;2247043;79;20916;-84
2022/02/22 13:12:52;;;;;;;10.07;3.43;;;;;;;5.73;76.80;98325.34;2247452;78;20982;-83
2022/02/22 13:15:52;;;;;;;7.97;2.90;;;;;;;5.72;76.46;98317.54;2246981;79;20932;-85
2022/02/22 13:18:53;;;;;;;7.77;2.60;;;;;;;5.63;76.39;98323.39;2247982;79;20999;-86
2022/02/22 13:21:54;;;;;;;7.33;3.80;;;;;;;5.45;76.68;98324.26;2247759;79;20940;-87
2022/02/22 13:24:54;;;;;;;10.50;3.30;;;;;;;5.22;77.17;98331.89;2247289;77;20959;-86
2022/02/22 13:27:55;;;;;;;13.43;4.07;;;;;;;5.04;77.66;98339.61;2247786;78;21440;-86
2022/02/22 13:30:55;;;;;;;11.40;4.73;;;;;;;4.99;79.02;98359.73;2247753;79;20944;-84
2022/02/22 13:33:56;;;;;;;12.03;5.50;;;;;;;4.94;79.26;98356.16;2247472;79;21023;-85
2022/02/22 13:36:57;;;;;;;22.73;7.43;;;;;;;4.95;79.90;98357.91;2247656;79;20971;-85
2022/02/22 13:39:58;;;;;;;15.23;6.20;;;;;;;5.00;80.20;98364.07;2247948;79;20990;-85
2022/02/22 13:42:58;;;;;;;19.77;7.60;;;;;;;4.92;79.60;98371.63;2247535;78;21387;-85
2022/02/22 13:45:58;;;;;;;14.60;6.80;;;;;;;4.97;79.82;98376.92;2247053;78;21346;-84
2022/02/22 13:48:59;;;;;;;19.70;6.50;;;;;;;5.00;80.17;98383.05;2247590;79;21386;-86
2022/02/22 13:52:01;;;;;;;20.20;8.00;;;;;;;5.03;79.71;98398.66;2248577;79;21315;-87
2022/02/22 13:55:02;;;;;;;20.17;6.60;;;;;;;5.04;79.62;98402.98;2248278;79;20936;-85
2022/02/22 13:58:04;;;;;;;22.17;7.53;;;;;;;4.93;78.96;98403.54;2226134;79;20958;-85
2022/02/22 14:01:05;;;;;;;21.77;8.37;;;;;;;4.88;78.22;98416.34;2248373;79;20928;-86
2022/02/22 14:04:05;;;;;;;13.80;5.00;;;;;;;4.79;77.69;98422.56;2247866;79;21014;-84
2022/02/22 14:07:06;;;;;;;20.93;5.53;;;;;;;4.71;77.27;98426.64;2247823;78;20964;-86
2022/02/22 14:10:07;;;;;;;19.70;6.67;;;;;;;4.66;77.05;98425.64;2247350;79;20924;-86
2022/02/22 14:13:07;;;;;;;19.13;7.07;;;;;;;4.60;77.05;98428.05;2247910;79;21348;-86
2022/02/22 14:16:08;;;;;;;26.40;7.13;;;;;;;4.64;77.14;98431.18;2247047;78;21407;-86